createdAt,value
2018-01-07T00:00:11.116Z,99.99
2018-01-07T00:01:11.087Z,99.99
2018-01-07T00:02:11.063Z,99.99
2018-01-07T00:03:11.021Z,99.99
2018-01-07T00:04:10.997Z,99.99
2018-01-07T00:05:10.957Z,99.99
2018-01-07T00:06:10.929Z,99.99
2018-01-07T00:07:10.899Z,99.99
2018-01-07T00:08:10.863Z,99.99
2018-01-07T00:09:10.828Z,99.99
2018-01-07T00:10:10.805Z,99.99
2018-01-07T00:11:11.071Z,99.99
2018-01-07T00:12:10.734Z,99.99
2018-01-07T00:13:10.710Z,99.99
2018-01-07T00:14:10.671Z,99.99
2018-01-07T00:15:10.651Z,99.99
2018-01-07T00:16:10.610Z,99.99
2018-01-07T00:17:10.576Z,99.99
2018-01-07T00:18:10.548Z,99.99
2018-01-07T00:19:10.513Z,99.99
2018-01-07T00:20:10.482Z,99.99
2018-01-07T00:21:10.464Z,99.99
2018-01-07T00:22:10.436Z,99.99
2018-01-07T00:23:10.397Z,99.99
2018-01-07T00:24:10.356Z,99.99
2018-01-07T00:25:10.329Z,99.99
2018-01-07T00:26:10.295Z,99.99
2018-01-07T00:27:10.263Z,99.99
2018-01-07T00:28:10.229Z,99.99
2018-01-07T00:29:10.799Z,99.99
2018-01-07T00:30:10.165Z,99.99
2018-01-07T00:31:10.140Z,99.99
2018-01-07T00:32:10.103Z,99.99
2018-01-07T00:33:10.077Z,99.99
2018-01-07T00:34:10.037Z,99.99
2018-01-07T00:35:10.012Z,99.99
2018-01-07T00:36:09.981Z,99.99
2018-01-07T00:37:09.953Z,99.99
2018-01-07T00:38:09.918Z,99.99
2018-01-07T00:39:09.880Z,99.99
2018-01-07T00:40:09.845Z,99.99
2018-01-07T00:41:10.077Z,99.99
2018-01-07T00:42:09.785Z,99.99
2018-01-07T00:43:09.752Z,99.99
2018-01-07T00:44:09.725Z,99.99
2018-01-07T00:45:09.693Z,99.99
2018-01-07T00:46:09.655Z,99.99
2018-01-07T00:47:09.622Z,99.99
2018-01-07T00:48:09.599Z,99.99
2018-01-07T00:49:09.572Z,99.99
2018-01-07T00:50:09.526Z,99.99
2018-01-07T00:51:09.500Z,99.99
2018-01-07T00:52:09.463Z,99.99
2018-01-07T00:53:09.434Z,99.99
2018-01-07T00:54:09.400Z,99.99
2018-01-07T00:55:09.369Z,99.99
2018-01-07T00:56:09.335Z,99.99
2018-01-07T00:57:09.308Z,99.99
2018-01-07T00:58:09.268Z,99.99
2018-01-07T00:59:09.239Z,99.99
2018-01-07T01:00:09.211Z,99.99
2018-01-07T01:01:09.177Z,99.99
2018-01-07T01:02:09.140Z,99.99
2018-01-07T01:03:09.113Z,99.99
2018-01-07T01:04:09.083Z,99.99
2018-01-07T01:05:09.053Z,99.99
2018-01-07T01:06:09.018Z,99.99
2018-01-07T01:07:08.988Z,99.99
2018-01-07T01:08:08.948Z,99.99
2018-01-07T01:09:08.918Z,99.99
2018-01-07T01:10:08.890Z,99.99
2018-01-07T01:11:08.853Z,99.99
2018-01-07T01:12:08.823Z,99.99
2018-01-07T01:13:08.793Z,99.99
2018-01-07T01:14:08.761Z,99.99
2018-01-07T01:15:08.733Z,99.99
2018-01-07T01:16:08.694Z,99.99
2018-01-07T01:17:08.664Z,99.99
2018-01-07T01:18:08.640Z,99.99
2018-01-07T01:19:08.592Z,99.99
2018-01-07T01:20:08.577Z,99.99
2018-01-07T01:21:08.533Z,99.99
2018-01-07T01:22:08.502Z,99.99
2018-01-07T01:23:08.472Z,99.99
2018-01-07T01:24:08.433Z,99.99
2018-01-07T01:25:08.413Z,99.99
2018-01-07T01:26:08.366Z,99.99
2018-01-07T01:27:08.335Z,99.99
2018-01-07T01:28:08.307Z,99.99
2018-01-07T01:29:08.631Z,99.99
2018-01-07T01:30:08.241Z,99.99
2018-01-07T01:31:08.210Z,99.99
2018-01-07T01:32:08.178Z,99.99
2018-01-07T01:33:08.143Z,99.99
2018-01-07T01:34:08.107Z,99.99
2018-01-07T01:35:08.081Z,99.99
2018-01-07T01:36:08.049Z,99.99
2018-01-07T01:37:08.024Z,99.99
2018-01-07T01:38:07.987Z,99.99
2018-01-07T01:39:07.952Z,99.99
2018-01-07T01:40:07.917Z,99.99
2018-01-07T01:41:08.190Z,99.99
2018-01-07T01:42:07.855Z,99.99
2018-01-07T01:43:07.819Z,99.99
2018-01-07T01:44:07.783Z,99.99
2018-01-07T01:45:07.757Z,99.99
2018-01-07T01:46:07.725Z,99.99
2018-01-07T01:47:07.684Z,99.99
2018-01-07T01:48:07.651Z,99.99
2018-01-07T01:49:07.620Z,99.99
2018-01-07T01:50:07.598Z,99.99
2018-01-07T01:51:07.556Z,99.99
2018-01-07T01:52:07.527Z,99.99
2018-01-07T01:53:07.492Z,99.99
2018-01-07T01:54:07.467Z,99.99
2018-01-07T01:55:07.422Z,99.99
2018-01-07T01:56:07.390Z,99.99
2018-01-07T01:57:07.363Z,99.99
2018-01-07T01:58:07.326Z,99.99
2018-01-07T01:59:07.296Z,99.99
2018-01-07T02:00:07.267Z,99.99
2018-01-07T02:01:07.229Z,99.99
2018-01-07T02:02:07.193Z,99.99
2018-01-07T02:03:07.170Z,99.99
2018-01-07T02:04:07.127Z,99.99
2018-01-07T02:05:07.450Z,99.99
2018-01-07T02:06:07.071Z,99.99
2018-01-07T02:07:07.033Z,99.99
2018-01-07T02:08:07.008Z,99.99
2018-01-07T02:09:06.969Z,99.99
2018-01-07T02:10:06.939Z,99.99
2018-01-07T02:11:06.906Z,99.99
2018-01-07T02:12:06.872Z,99.99
2018-01-07T02:13:06.840Z,99.99
2018-01-07T02:14:06.806Z,99.99
2018-01-07T02:15:06.770Z,99.99
2018-01-07T02:16:06.735Z,99.99
2018-01-07T02:17:06.959Z,99.99
2018-01-07T02:18:06.674Z,99.99
2018-01-07T02:19:06.637Z,99.99
2018-01-07T02:20:06.604Z,99.99
2018-01-07T02:21:06.576Z,99.99
2018-01-07T02:22:06.550Z,99.99
2018-01-07T02:23:06.806Z,99.99
2018-01-07T02:24:06.473Z,99.99
2018-01-07T02:25:06.449Z,99.99
2018-01-07T02:26:06.417Z,99.99
2018-01-07T02:27:06.372Z,99.99
2018-01-07T02:28:06.347Z,99.99
2018-01-07T02:29:06.310Z,99.99
2018-01-07T02:30:06.274Z,99.99
2018-01-07T02:31:06.244Z,99.99
2018-01-07T02:32:06.219Z,99.99
2018-01-07T02:33:06.190Z,99.99
2018-01-07T02:34:06.148Z,99.99
2018-01-07T02:35:06.112Z,99.99
2018-01-07T02:36:06.087Z,99.99
2018-01-07T02:37:06.045Z,99.99
2018-01-07T02:38:06.013Z,99.99
2018-01-07T02:39:05.983Z,99.99
2018-01-07T02:40:05.943Z,99.99
2018-01-07T02:41:05.914Z,99.99
2018-01-07T02:42:05.904Z,99.99
2018-01-07T02:43:05.850Z,99.99
2018-01-07T02:44:05.840Z,99.99
2018-01-07T02:45:05.785Z,99.99
2018-01-07T02:46:05.753Z,99.99
2018-01-07T02:47:05.722Z,99.99
2018-01-07T02:48:05.689Z,99.99
2018-01-07T02:49:05.651Z,99.99
2018-01-07T02:50:05.626Z,99.99
2018-01-07T02:51:05.588Z,99.99
2018-01-07T02:52:05.562Z,99.99
2018-01-07T02:53:05.518Z,99.99
2018-01-07T02:54:05.484Z,99.99
2018-01-07T02:55:05.462Z,99.99
2018-01-07T02:56:05.416Z,99.99
2018-01-07T02:57:05.387Z,99.99
2018-01-07T02:58:05.352Z,99.99
2018-01-07T02:59:05.331Z,99.99
2018-01-07T03:00:05.285Z,99.99
2018-01-07T03:01:05.258Z,99.99
2018-01-07T03:02:05.234Z,99.99
2018-01-07T03:03:05.191Z,99.99
2018-01-07T03:04:05.156Z,99.99
2018-01-07T03:05:05.931Z,99.99
2018-01-07T03:06:05.084Z,99.99
2018-01-07T03:07:05.054Z,99.99
2018-01-07T03:08:05.019Z,99.99
2018-01-07T03:09:04.990Z,99.99
2018-01-07T03:10:04.970Z,99.99
2018-01-07T03:11:04.919Z,99.99
2018-01-07T03:12:04.898Z,99.99
2018-01-07T03:13:04.860Z,99.99
2018-01-07T03:14:04.819Z,99.99
2018-01-07T03:15:04.790Z,99.99
2018-01-07T03:16:05.060Z,99.99
2018-01-07T03:17:04.744Z,99.99
2018-01-07T03:18:04.695Z,99.99
2018-01-07T03:19:04.657Z,99.99
2018-01-07T03:20:04.624Z,99.99
2018-01-07T03:21:04.600Z,99.99
2018-01-07T03:22:04.556Z,99.99
2018-01-07T03:23:04.535Z,99.99
2018-01-07T03:24:04.497Z,99.99
2018-01-07T03:25:04.461Z,99.99
2018-01-07T03:26:04.423Z,99.99
2018-01-07T03:27:04.390Z,99.99
2018-01-07T03:28:04.614Z,99.99
2018-01-07T03:29:04.328Z,99.99
2018-01-07T03:30:04.291Z,99.99
2018-01-07T03:31:04.256Z,99.99
2018-01-07T03:32:04.221Z,99.99
2018-01-07T03:33:04.195Z,99.99
2018-01-07T03:34:04.156Z,99.99
2018-01-07T03:35:04.121Z,99.99
2018-01-07T03:36:04.092Z,99.99
2018-01-07T03:37:04.061Z,99.99
2018-01-07T03:38:04.024Z,99.99
2018-01-07T03:39:03.986Z,99.99
2018-01-07T03:40:03.962Z,99.99
2018-01-07T03:41:03.923Z,99.99
2018-01-07T03:42:03.899Z,99.99
2018-01-07T03:43:03.854Z,99.99
2018-01-07T03:44:03.840Z,99.99
2018-01-07T03:45:03.794Z,99.99
2018-01-07T03:46:03.762Z,99.99
2018-01-07T03:47:03.733Z,99.99
2018-01-07T03:48:03.695Z,99.99
2018-01-07T03:49:03.657Z,99.99
2018-01-07T03:50:03.624Z,99.99
2018-01-07T03:51:03.588Z,99.99
2018-01-07T03:52:03.554Z,99.99
2018-01-07T03:53:03.536Z,99.99
2018-01-07T03:54:03.491Z,99.99
2018-01-07T03:55:03.453Z,99.99
2018-01-07T03:56:03.422Z,99.99
2018-01-07T03:57:03.386Z,99.99
2018-01-07T03:58:03.358Z,99.99
2018-01-07T03:59:03.325Z,99.99
2018-01-07T04:00:03.296Z,99.99
2018-01-07T04:01:03.253Z,99.99
2018-01-07T04:02:03.224Z,99.99
2018-01-07T04:03:03.186Z,99.99
2018-01-07T04:04:03.152Z,99.99
2018-01-07T04:05:03.122Z,99.99
2018-01-07T04:06:03.101Z,99.99
2018-01-07T04:07:03.062Z,99.99
2018-01-07T04:08:03.024Z,99.99
2018-01-07T04:09:02.994Z,99.99
2018-01-07T04:10:02.956Z,99.99
2018-01-07T04:11:02.932Z,99.99
2018-01-07T04:12:02.897Z,99.99
2018-01-07T04:13:02.857Z,99.99
2018-01-07T04:14:02.819Z,99.99
2018-01-07T04:15:02.788Z,99.99
2018-01-07T04:16:03.011Z,99.99
2018-01-07T04:17:02.720Z,99.99
2018-01-07T04:18:02.691Z,99.99
2018-01-07T04:19:02.658Z,99.99
2018-01-07T04:20:02.629Z,99.99
2018-01-07T04:21:02.585Z,99.99
2018-01-07T04:22:02.554Z,99.99
2018-01-07T04:23:02.520Z,99.99
2018-01-07T04:24:02.485Z,99.99
2018-01-07T04:25:02.461Z,99.99
2018-01-07T04:26:02.424Z,99.99
2018-01-07T04:27:02.388Z,99.99
2018-01-07T04:28:02.356Z,99.99
2018-01-07T04:29:02.317Z,99.99
2018-01-07T04:30:02.287Z,99.99
2018-01-07T04:31:02.259Z,99.99
2018-01-07T04:32:02.224Z,99.99
2018-01-07T04:33:02.188Z,99.99
2018-01-07T04:34:02.151Z,99.99
2018-01-07T04:35:02.117Z,99.99
2018-01-07T04:36:02.084Z,99.99
2018-01-07T04:37:02.059Z,99.99
2018-01-07T04:38:02.016Z,99.99
2018-01-07T04:39:01.991Z,99.99
2018-01-07T04:40:02.198Z,99.99
2018-01-07T04:41:01.920Z,99.99
2018-01-07T04:42:01.880Z,99.99
2018-01-07T04:43:01.854Z,99.99
2018-01-07T04:44:01.825Z,99.99
2018-01-07T04:45:01.782Z,99.99
2018-01-07T04:46:02.055Z,99.99
2018-01-07T04:47:01.718Z,99.99
2018-01-07T04:48:01.683Z,99.99
2018-01-07T04:49:01.660Z,99.99
2018-01-07T04:50:01.613Z,99.99
2018-01-07T04:51:01.936Z,99.99
2018-01-07T04:52:01.570Z,99.99
2018-01-07T04:53:01.531Z,99.99
2018-01-07T04:54:01.491Z,99.99
2018-01-07T04:55:01.453Z,99.99
2018-01-07T04:56:01.422Z,99.99
2018-01-07T04:57:01.380Z,99.99
2018-01-07T04:58:01.347Z,99.99
2018-01-07T04:59:01.314Z,99.99
2018-01-07T05:00:01.288Z,99.99
2018-01-07T05:01:01.255Z,99.99
2018-01-07T05:02:01.221Z,99.99
2018-01-07T05:03:01.484Z,99.99
2018-01-07T05:04:01.154Z,99.99
2018-01-07T05:05:01.124Z,99.99
2018-01-07T05:06:01.083Z,99.99
2018-01-07T05:07:01.047Z,99.99
2018-01-07T05:08:01.012Z,99.99
2018-01-07T05:09:00.981Z,99.99
2018-01-07T05:10:00.949Z,99.99
2018-01-07T05:11:00.915Z,99.99
2018-01-07T05:12:00.882Z,99.99
2018-01-07T05:13:00.850Z,99.99
2018-01-07T05:14:00.820Z,99.99
2018-01-07T05:15:00.777Z,99.99
2018-01-07T05:16:00.751Z,99.99
2018-01-07T05:17:00.710Z,99.99
2018-01-07T05:18:00.676Z,99.99
2018-01-07T05:19:00.640Z,99.99
2018-01-07T05:20:00.613Z,99.99
2018-01-07T05:21:00.576Z,99.99
2018-01-07T05:22:00.542Z,99.99
2018-01-07T05:23:00.519Z,99.99
2018-01-07T05:24:00.482Z,99.99
2018-01-07T05:25:00.450Z,99.99
2018-01-07T05:26:00.416Z,99.99
2018-01-07T05:27:00.396Z,99.99
2018-01-07T05:28:00.340Z,99.99
2018-01-07T05:29:00.310Z,99.99
2018-01-07T05:30:00.282Z,99.99
2018-01-07T05:31:00.240Z,99.99
2018-01-07T05:32:00.516Z,99.99
2018-01-07T05:33:00.172Z,99.99
2018-01-07T05:34:00.146Z,99.99
2018-01-07T05:35:00.107Z,99.99
2018-01-07T05:36:00.072Z,99.99
2018-01-07T05:37:00.040Z,99.99
2018-01-07T05:38:00.005Z,99.99
2018-01-07T05:38:59.976Z,99.99
2018-01-07T05:39:59.951Z,99.99
2018-01-07T05:40:59.903Z,99.99
2018-01-07T05:41:59.920Z,99.99
2018-01-07T05:42:59.835Z,99.99
2018-01-07T05:43:59.809Z,99.99
2018-01-07T05:44:59.772Z,99.99
2018-01-07T05:45:59.740Z,99.99
2018-01-07T05:46:59.710Z,99.99
2018-01-07T05:47:59.681Z,99.99
2018-01-07T05:48:59.639Z,99.99
2018-01-07T05:49:59.610Z,99.99
2018-01-07T05:50:59.571Z,99.99
2018-01-07T05:51:59.538Z,99.99
2018-01-07T05:52:59.504Z,99.99
2018-01-07T05:53:59.468Z,99.99
2018-01-07T05:54:59.434Z,99.99
2018-01-07T05:55:59.400Z,99.99
2018-01-07T05:56:59.374Z,99.99
2018-01-07T05:57:59.331Z,99.99
2018-01-07T05:58:59.297Z,99.99
2018-01-07T05:59:59.265Z,99.99
2018-01-07T06:00:59.230Z,99.99
2018-01-07T06:01:59.197Z,99.99
2018-01-07T06:02:59.174Z,99.99
2018-01-07T06:03:59.129Z,99.99
2018-01-07T06:04:59.097Z,99.99
2018-01-07T06:05:59.067Z,99.99
2018-01-07T06:06:59.031Z,99.99
2018-01-07T06:07:59.998Z,99.99
2018-01-07T06:08:58.962Z,99.99
2018-01-07T06:09:58.925Z,99.99
2018-01-07T06:10:58.895Z,99.99
2018-01-07T06:11:58.864Z,99.99
2018-01-07T06:12:58.839Z,99.99
2018-01-07T06:13:58.794Z,99.99
2018-01-07T06:14:58.765Z,99.99
2018-01-07T06:15:58.724Z,99.99
2018-01-07T06:16:58.708Z,99.99
2018-01-07T06:17:58.660Z,99.99
2018-01-07T06:18:58.631Z,99.99
2018-01-07T06:19:58.590Z,99.99
2018-01-07T06:20:58.561Z,99.99
2018-01-07T06:21:58.522Z,99.99
2018-01-07T06:22:58.498Z,99.99
2018-01-07T06:23:58.465Z,99.99
2018-01-07T06:24:58.421Z,99.99
2018-01-07T06:25:58.395Z,99.99
2018-01-07T06:26:58.355Z,99.99
2018-01-07T06:27:58.326Z,99.99
2018-01-07T06:28:58.289Z,99.99
2018-01-07T06:29:58.260Z,99.99
2018-01-07T06:30:58.226Z,99.99
2018-01-07T06:31:58.488Z,99.99
2018-01-07T06:32:58.158Z,99.99
2018-01-07T06:33:58.123Z,99.99
2018-01-07T06:34:58.087Z,99.99
2018-01-07T06:35:58.056Z,99.99
2018-01-07T06:36:58.022Z,99.99
2018-01-07T06:37:57.992Z,99.99
2018-01-07T06:38:57.948Z,99.99
2018-01-07T06:39:57.927Z,99.99
2018-01-07T06:40:57.887Z,99.99
2018-01-07T06:41:57.853Z,99.99
2018-01-07T06:42:57.815Z,99.99
2018-01-07T06:43:58.091Z,99.99
2018-01-07T06:44:57.746Z,99.99
2018-01-07T06:45:57.713Z,99.99
2018-01-07T06:46:57.685Z,99.99
2018-01-07T06:47:57.657Z,99.99
2018-01-07T06:48:57.620Z,99.99
2018-01-07T06:49:57.583Z,99.99
2018-01-07T06:50:57.542Z,99.99
2018-01-07T06:51:57.532Z,99.99
2018-01-07T06:52:57.475Z,99.99
2018-01-07T06:53:57.449Z,99.99
2018-01-07T06:54:57.420Z,99.99
2018-01-07T06:55:57.385Z,99.99
2018-01-07T06:56:57.347Z,99.99
2018-01-07T06:57:57.304Z,99.99
2018-01-07T06:58:57.284Z,99.99
2018-01-07T06:59:57.242Z,99.99
2018-01-07T07:00:57.235Z,99.99
2018-01-07T07:01:57.180Z,99.99
2018-01-07T07:02:57.141Z,99.99
2018-01-07T07:03:57.107Z,99.99
2018-01-07T07:04:57.078Z,99.99
2018-01-07T07:05:57.041Z,99.99
2018-01-07T07:06:57.011Z,99.99
2018-01-07T07:07:56.967Z,99.99
2018-01-07T07:08:56.939Z,99.99
2018-01-07T07:09:56.903Z,99.99
2018-01-07T07:10:56.867Z,99.99
2018-01-07T07:11:56.841Z,99.99
2018-01-07T07:12:56.799Z,99.99
2018-01-07T07:13:56.765Z,99.99
2018-01-07T07:14:56.742Z,99.99
2018-01-07T07:15:56.708Z,99.99
2018-01-07T07:16:56.664Z,99.99
2018-01-07T07:17:56.634Z,99.99
2018-01-07T07:18:56.607Z,99.99
2018-01-07T07:19:56.865Z,99.99
2018-01-07T07:20:56.534Z,99.99
2018-01-07T07:21:56.494Z,99.99
2018-01-07T07:22:56.464Z,99.99
2018-01-07T07:23:56.437Z,99.99
2018-01-07T07:24:56.406Z,99.99
2018-01-07T07:25:56.363Z,99.99
2018-01-07T07:26:56.329Z,99.99
2018-01-07T07:27:56.295Z,99.99
2018-01-07T07:28:56.267Z,99.99
2018-01-07T07:29:56.226Z,99.99
2018-01-07T07:30:56.192Z,99.99
2018-01-07T07:31:56.166Z,99.99
2018-01-07T07:32:56.136Z,99.99
2018-01-07T07:33:56.106Z,99.99
2018-01-07T07:34:56.057Z,99.99
2018-01-07T07:35:56.024Z,99.99
2018-01-07T07:36:55.997Z,99.99
2018-01-07T07:37:55.957Z,99.99
2018-01-07T07:38:55.930Z,99.99
2018-01-07T07:39:55.917Z,99.99
2018-01-07T07:40:55.855Z,99.99
2018-01-07T07:41:55.851Z,99.99
2018-01-07T07:42:56.638Z,99.99
2018-01-07T07:43:55.762Z,99.99
2018-01-07T07:44:55.730Z,99.99
2018-01-07T07:45:55.688Z,99.99
2018-01-07T07:46:55.669Z,99.99
2018-01-07T07:47:55.624Z,99.99
2018-01-07T07:48:55.946Z,99.99
2018-01-07T07:49:55.557Z,99.99
2018-01-07T07:50:55.516Z,99.99
2018-01-07T07:51:55.488Z,99.99
2018-01-07T07:52:55.457Z,99.99
2018-01-07T07:53:55.425Z,99.99
2018-01-07T07:54:55.385Z,99.99
2018-01-07T07:55:55.359Z,99.99
2018-01-07T07:56:55.315Z,99.99
2018-01-07T07:57:55.296Z,99.99
2018-01-07T07:58:55.257Z,99.99
2018-01-07T07:59:55.217Z,99.99
2018-01-07T08:00:55.482Z,99.99
2018-01-07T08:01:55.152Z,99.99
2018-01-07T08:02:55.126Z,99.99
2018-01-07T08:03:55.087Z,99.99
2018-01-07T08:04:55.054Z,99.99
2018-01-07T08:05:55.012Z,99.99
2018-01-07T08:06:54.977Z,99.99
2018-01-07T08:07:54.946Z,99.99
2018-01-07T08:08:54.912Z,99.99
2018-01-07T08:09:54.886Z,99.99
2018-01-07T08:10:54.848Z,99.99
2018-01-07T08:11:54.817Z,99.99
2018-01-07T08:12:54.780Z,99.99
2018-01-07T08:13:54.747Z,99.99
2018-01-07T08:14:54.709Z,99.99
2018-01-07T08:15:54.678Z,99.99
2018-01-07T08:16:54.645Z,99.99
2018-01-07T08:17:54.622Z,99.99
2018-01-07T08:18:54.583Z,99.99
2018-01-07T08:19:54.543Z,99.99
2018-01-07T08:20:54.532Z,99.99
2018-01-07T08:21:54.475Z,99.99
2018-01-07T08:22:54.442Z,99.99
2018-01-07T08:23:54.414Z,99.99
2018-01-07T08:24:54.685Z,99.99
2018-01-07T08:25:54.338Z,99.99
2018-01-07T08:26:54.311Z,99.99
2018-01-07T08:27:54.280Z,99.99
2018-01-07T08:28:54.252Z,99.99
2018-01-07T08:29:54.213Z,99.99
2018-01-07T08:30:54.176Z,99.99
2018-01-07T08:31:54.140Z,99.99
2018-01-07T08:32:54.104Z,99.99
2018-01-07T08:33:54.080Z,99.99
2018-01-07T08:34:54.040Z,99.99
2018-01-07T08:35:54.004Z,99.99
2018-01-07T08:36:54.276Z,99.99
2018-01-07T08:37:53.940Z,99.99
2018-01-07T08:38:53.903Z,99.99
2018-01-07T08:39:53.874Z,99.99
2018-01-07T08:40:53.844Z,99.99
2018-01-07T08:41:53.803Z,99.99
2018-01-07T08:42:53.775Z,99.99
2018-01-07T08:43:53.793Z,99.99
2018-01-07T08:44:53.703Z,99.99
2018-01-07T08:45:53.678Z,99.99
2018-01-07T08:46:53.640Z,99.99
2018-01-07T08:47:53.638Z,99.99
2018-01-07T08:48:53.576Z,99.99
2018-01-07T08:49:53.544Z,99.99
2018-01-07T08:50:53.516Z,99.99
2018-01-07T08:51:53.469Z,99.99
2018-01-07T08:52:53.442Z,99.99
2018-01-07T08:53:53.405Z,99.99
2018-01-07T08:54:53.368Z,99.99
2018-01-07T08:55:53.399Z,99.99
2018-01-07T08:56:53.312Z,99.99
2018-01-07T08:57:53.271Z,99.99
2018-01-07T08:58:53.242Z,99.99
2018-01-07T08:59:53.206Z,99.99
2018-01-07T09:00:53.170Z,99.99
2018-01-07T09:01:53.147Z,99.99
2018-01-07T09:02:53.111Z,99.99
2018-01-07T09:03:53.078Z,99.99
2018-01-07T09:04:53.039Z,99.99
2018-01-07T09:05:53.004Z,99.99
2018-01-07T09:06:52.977Z,99.99
2018-01-07T09:07:52.943Z,99.99
2018-01-07T09:08:52.904Z,99.99
2018-01-07T09:09:52.880Z,99.99
2018-01-07T09:10:52.845Z,99.99
2018-01-07T09:11:52.812Z,99.99
2018-01-07T09:12:52.778Z,99.99
2018-01-07T09:13:52.745Z,99.99
2018-01-07T09:14:52.741Z,99.99
2018-01-07T09:15:52.677Z,99.99
2018-01-07T09:16:52.646Z,99.99
2018-01-07T09:17:52.609Z,99.99
2018-01-07T09:18:52.825Z,99.99
2018-01-07T09:19:52.550Z,99.99
2018-01-07T09:20:52.516Z,99.99
2018-01-07T09:21:52.488Z,99.99
2018-01-07T09:22:52.451Z,99.99
2018-01-07T09:23:52.420Z,99.99
2018-01-07T09:24:52.387Z,99.99
2018-01-07T09:25:52.352Z,99.99
2018-01-07T09:26:52.322Z,99.99
2018-01-07T09:27:52.290Z,99.99
2018-01-07T09:28:52.253Z,99.99
2018-01-07T09:29:52.219Z,99.99
2018-01-07T09:30:52.193Z,99.99
2018-01-07T09:31:52.161Z,99.99
2018-01-07T09:32:52.125Z,99.99
2018-01-07T09:33:52.100Z,99.99
2018-01-07T09:34:52.061Z,99.99
2018-01-07T09:35:52.030Z,99.99
2018-01-07T09:36:52.305Z,99.99
2018-01-07T09:37:51.971Z,99.99
2018-01-07T09:38:51.938Z,99.99
2018-01-07T09:39:51.909Z,99.99
2018-01-07T09:40:51.875Z,99.99
2018-01-07T09:41:51.843Z,99.99
2018-01-07T09:42:51.820Z,99.99
2018-01-07T09:43:51.780Z,99.99
2018-01-07T09:44:51.749Z,99.99
2018-01-07T09:45:51.724Z,99.99
2018-01-07T09:46:51.686Z,99.99
2018-01-07T09:47:51.660Z,99.99
2018-01-07T09:48:51.628Z,99.99
2018-01-07T09:49:51.604Z,99.99
2018-01-07T09:50:51.563Z,99.99
2018-01-07T09:51:51.532Z,99.99
2018-01-07T09:52:51.509Z,99.99
2018-01-07T09:53:51.477Z,99.99
2018-01-07T09:54:51.740Z,99.99
2018-01-07T09:55:51.409Z,99.99
2018-01-07T09:56:51.395Z,99.99
2018-01-07T09:57:51.357Z,99.99
2018-01-07T09:58:51.317Z,99.99
2018-01-07T09:59:51.302Z,99.99
2018-01-07T10:00:51.257Z,99.99
2018-01-07T10:01:51.230Z,99.99
2018-01-07T10:02:51.195Z,99.99
2018-01-07T10:03:51.176Z,99.99
2018-01-07T10:04:51.142Z,99.99
2018-01-07T10:05:51.108Z,99.99
2018-01-07T10:06:51.089Z,99.99
2018-01-07T10:07:51.044Z,99.99
2018-01-07T10:08:51.016Z,99.99
2018-01-07T10:09:50.983Z,99.99
2018-01-07T10:10:50.961Z,99.99
2018-01-07T10:11:50.933Z,99.99
2018-01-07T10:12:50.896Z,99.99
2018-01-07T10:13:50.923Z,99.99
2018-01-07T10:14:50.840Z,99.99
2018-01-07T10:15:50.814Z,99.99
2018-01-07T10:16:50.783Z,99.99
2018-01-07T10:17:50.751Z,99.99
2018-01-07T10:18:50.721Z,99.99
2018-01-07T10:19:50.692Z,99.99
2018-01-07T10:20:50.677Z,99.99
2018-01-07T10:21:50.641Z,99.99
2018-01-07T10:22:50.599Z,99.99
2018-01-07T10:23:50.575Z,99.99
2018-01-07T10:24:50.550Z,99.99
2018-01-07T10:25:50.516Z,99.99
2018-01-07T10:26:50.488Z,99.99
2018-01-07T10:27:50.459Z,99.99
2018-01-07T10:28:50.430Z,99.99
2018-01-07T10:29:50.397Z,99.99
2018-01-07T10:30:50.676Z,99.99
2018-01-07T10:31:50.340Z,99.99
2018-01-07T10:32:50.312Z,99.99
2018-01-07T10:33:50.294Z,99.99
2018-01-07T10:34:50.265Z,99.99
2018-01-07T10:35:50.229Z,99.99
2018-01-07T10:36:50.713Z,99.99
2018-01-07T10:37:50.176Z,99.99
2018-01-07T10:38:50.153Z,99.99
2018-01-07T10:39:50.110Z,99.99
2018-01-07T10:40:50.096Z,99.99
2018-01-07T10:41:50.053Z,99.99
2018-01-07T10:42:50.027Z,99.99
2018-01-07T10:43:49.996Z,99.99
2018-01-07T10:44:49.970Z,99.99
2018-01-07T10:45:49.946Z,99.99
2018-01-07T10:46:49.918Z,99.99
2018-01-07T10:47:49.884Z,99.99
2018-01-07T10:48:49.865Z,99.99
2018-01-07T10:49:49.831Z,99.99
2018-01-07T10:50:49.808Z,99.99
2018-01-07T10:51:49.777Z,99.99
2018-01-07T10:52:49.745Z,99.99
2018-01-07T10:53:49.712Z,99.99
2018-01-07T10:54:49.689Z,99.99
2018-01-07T10:55:49.656Z,99.99
2018-01-07T10:56:49.682Z,99.99
2018-01-07T10:57:49.611Z,99.99
2018-01-07T10:58:49.570Z,99.99
2018-01-07T10:59:49.548Z,99.99
2018-01-07T11:00:49.526Z,99.99
2018-01-07T11:01:49.484Z,99.99
2018-01-07T11:02:49.462Z,99.99
2018-01-07T11:03:49.434Z,99.99
2018-01-07T11:04:49.404Z,99.99
2018-01-07T11:05:49.379Z,99.99
2018-01-07T11:06:49.348Z,99.99
2018-01-07T11:07:49.316Z,99.99
2018-01-07T11:08:49.290Z,99.99
2018-01-07T11:09:49.261Z,99.99
2018-01-07T11:10:49.242Z,99.99
2018-01-07T11:11:49.205Z,99.99
2018-01-07T11:12:49.183Z,99.99
2018-01-07T11:13:49.150Z,99.99
2018-01-07T11:14:49.118Z,99.99
2018-01-07T11:15:49.096Z,99.99
2018-01-07T11:16:49.064Z,99.99
2018-01-07T11:17:49.035Z,99.99
2018-01-07T11:18:49.363Z,99.99
2018-01-07T11:19:48.985Z,99.99
2018-01-07T11:20:48.950Z,99.99
2018-01-07T11:21:48.929Z,99.99
2018-01-07T11:22:48.903Z,99.99
2018-01-07T11:23:48.865Z,99.99
2018-01-07T11:24:48.840Z,99.99
2018-01-07T11:25:48.810Z,99.99
2018-01-07T11:26:48.787Z,99.99
2018-01-07T11:27:48.761Z,99.99
2018-01-07T11:28:48.726Z,99.63
2018-01-07T11:29:48.708Z,99.99
2018-01-07T11:30:48.674Z,99.99
2018-01-07T11:31:48.643Z,99.99
2018-01-07T11:32:48.617Z,99.99
2018-01-07T11:33:48.596Z,99.99
2018-01-07T11:34:48.569Z,99.99
2018-01-07T11:35:48.533Z,99.99
2018-01-07T11:36:48.510Z,99.99
2018-01-07T11:37:48.473Z,99.99
2018-01-07T11:38:48.461Z,99.99
2018-01-07T11:39:48.420Z,99.99
2018-01-07T11:40:48.398Z,99.99
2018-01-07T11:41:48.371Z,99.99
2018-01-07T11:42:48.338Z,99.99
2018-01-07T11:43:48.314Z,99.99
2018-01-07T11:44:48.280Z,99.99
2018-01-07T11:45:48.262Z,99.99
2018-01-07T11:46:48.231Z,99.99
2018-01-07T11:47:48.197Z,99.99
2018-01-07T11:48:48.428Z,98.45
2018-01-07T11:49:48.140Z,99.20
2018-01-07T11:50:48.122Z,99.99
2018-01-07T11:51:48.092Z,99.99
2018-01-07T11:52:48.068Z,99.99
2018-01-07T11:53:48.032Z,99.99
2018-01-07T11:54:48.001Z,99.77
2018-01-07T11:55:47.976Z,98.54
2018-01-07T11:56:47.949Z,97.41
2018-01-07T11:57:47.926Z,97.17
2018-01-07T11:58:47.898Z,98.68
2018-01-07T11:59:47.876Z,99.99
2018-01-07T12:00:47.844Z,99.99
2018-01-07T12:01:47.808Z,99.99
2018-01-07T12:02:47.792Z,99.49
2018-01-07T12:03:47.753Z,95.55
2018-01-07T12:04:47.733Z,92.56
2018-01-07T12:05:47.709Z,92.23
2018-01-07T12:06:47.681Z,93.46
2018-01-07T12:07:47.651Z,92.85
2018-01-07T12:08:47.616Z,91.61
2018-01-07T12:09:47.597Z,89.42
2018-01-07T12:10:47.571Z,89.80
2018-01-07T12:11:47.535Z,88.53
2018-01-07T12:12:47.510Z,90.71
2018-01-07T12:13:47.478Z,95.07
2018-01-07T12:14:47.458Z,96.88
2018-01-07T12:15:47.433Z,95.27
2018-01-07T12:16:47.404Z,97.17
2018-01-07T12:17:47.379Z,96.74
2018-01-07T12:18:47.348Z,95.41
2018-01-07T12:19:47.319Z,94.89
2018-01-07T12:20:47.291Z,92.61
2018-01-07T12:21:47.263Z,92.71
2018-01-07T12:22:47.242Z,91.80
2018-01-07T12:23:47.212Z,92.47
2018-01-07T12:24:47.486Z,94.32
2018-01-07T12:25:47.154Z,95.12
2018-01-07T12:26:47.127Z,95.07
2018-01-07T12:27:47.099Z,96.12
2018-01-07T12:28:47.072Z,95.84
2018-01-07T12:29:47.061Z,95.84
2018-01-07T12:30:47.030Z,96.26
2018-01-07T12:31:46.994Z,96.88
2018-01-07T12:32:46.971Z,98.11
2018-01-07T12:33:46.942Z,96.69
2018-01-07T12:34:46.957Z,95.93
2018-01-07T12:35:46.889Z,96.78
2018-01-07T12:36:46.856Z,96.03
2018-01-07T12:37:46.836Z,95.55
2018-01-07T12:38:46.801Z,94.70
2018-01-07T12:39:46.782Z,94.65
2018-01-07T12:40:46.754Z,94.42
2018-01-07T12:41:46.723Z,94.46
2018-01-07T12:42:46.701Z,93.51
2018-01-07T12:43:46.667Z,93.60
2018-01-07T12:44:46.646Z,93.37
2018-01-07T12:45:46.611Z,92.42
2018-01-07T12:46:46.598Z,90.52
2018-01-07T12:47:46.569Z,90.95
2018-01-07T12:48:46.539Z,92.04
2018-01-07T12:49:46.508Z,92.23
2018-01-07T12:50:46.477Z,92.80
2018-01-07T12:51:46.449Z,93.46